Swampscott, Massachusetts
Current Conditions -  °F | °C
As of 12:53 PM on Saturday 20 Dec 2014 (Local Time) from KBVY Reporting Station
Overcast Overcast  
Wind Chill: 27°   Ceiling: 3800
Heat Index: 34°   Visibility: 10mi
Dew Point: 23°   Wind: 8mph
Humidity: 64%   Direction: 20°NNE
Pressure: 30.26"   Gusts: NA
Location:  42.47°N, 70.92°W
Report Text: KBVY 201753Z 02007KT 10SM OVC038 01/M05 A3026 RMK AO2 SLP244 T00111050 10011 21033 55011
Loading
Personal Weather Stations






























Interactive Weather Map New forecast layout! Learn more

10-Day Weather Forecast

Advertisements
Track Severe Weather on mobile